Time;durP1;ratioP1;P1;durP2;ratioP2;P2;SDS_P1;SDS_P2;PMS_P1;PMS_P2;Temp;Humidity;BMP_temperature;BMP_pressure;BME280_temperature;BME280_humidity;BME280_pressure;Samples;Min_cycle;Max_cycle;Signal;HPM_P1;HPM_P2
2023/01/04 00:00:29;;;;;;;6.35;1.65;;;8.80;99.90;;;;;;4919198;29;20046;-86
2023/01/04 00:02:54;;;;;;;8.38;1.90;;;8.30;99.90;;;;;;4924184;29;20092;-86
2023/01/04 00:05:20;;;;;;;7.55;1.52;;;9.20;99.90;;;;;;4924723;29;20039;-86
2023/01/04 00:07:45;;;;;;;7.47;1.60;;;8.30;99.90;;;;;;4925262;29;20114;-87
2023/01/04 00:10:11;;;;;;;6.70;1.30;;;8.30;99.90;;;;;;4926966;29;20138;-87
2023/01/04 00:12:39;;;;;;;6.10;1.98;;;8.30;99.90;;;;;;4924539;29;20083;-87
2023/01/04 00:15:05;;;;;;;7.00;1.67;;;7.50;99.90;;;;;;4921766;29;20078;-87
2023/01/04 00:17:32;;;;;;;6.32;1.50;;;8.40;99.90;;;;;;4925595;29;20415;-87
2023/01/04 00:19:57;;;;;;;6.85;1.95;;;8.30;99.90;;;;;;4928801;29;20044;-87
2023/01/04 00:22:26;;;;;;;6.60;1.92;;;8.30;99.90;;;;;;4924746;29;20039;-87
2023/01/04 00:24:51;;;;;;;4.20;1.30;;;8.40;99.90;;;;;;4924169;29;20043;-87
2023/01/04 00:27:19;;;;;;;6.97;1.92;;;8.30;99.90;;;;;;4925818;29;20040;-86
2023/01/04 00:29:54;;;;;;;4.95;1.73;;;8.40;99.90;;;;;;4929482;29;20047;-86
2023/01/04 00:32:20;;;;;;;5.63;1.88;;;8.40;99.90;;;;;;4920964;29;20455;-87
2023/01/04 00:34:45;;;;;;;6.25;1.50;;;8.50;99.90;;;;;;4923955;29;20246;-86
2023/01/04 00:37:11;;;;;;;6.13;2.03;;;8.20;99.90;;;;;;4924291;29;20510;-86
2023/01/04 00:39:36;;;;;;;11.50;3.58;;;8.20;99.90;;;;;;4921316;29;20696;-86
2023/01/04 00:42:05;;;;;;;5.60;1.73;;;8.20;99.90;;;;;;4922446;29;20039;-86
2023/01/04 00:44:32;;;;;;;6.50;2.00;;;8.20;99.90;;;;;;4923443;29;20075;-86
2023/01/04 00:46:59;;;;;;;10.48;2.72;;;8.10;99.90;;;;;;4927581;29;20043;-86
2023/01/04 00:49:29;;;;;;;8.20;2.25;;;9.50;99.90;;;;;;4922889;29;20067;-86
2023/01/04 00:51:55;;;;;;;5.90;1.85;;;8.10;99.90;;;;;;4923476;29;20035;-86
2023/01/04 00:54:21;;;;;;;12.38;2.35;;;8.10;99.90;;;;;;4925031;29;20491;-86
2023/01/04 00:56:47;;;;;;;5.55;1.85;;;9.30;99.90;;;;;;4924194;29;20052;-86
2023/01/04 00:59:15;;;;;;;6.13;1.90;;;8.10;99.90;;;;;;4924895;29;20075;-87
2023/01/04 01:01:41;;;;;;;6.47;2.05;;;8.10;99.90;;;;;;4924298;29;20134;-86
2023/01/04 01:04:09;;;;;;;8.45;2.47;;;8.10;99.90;;;;;;4922203;29;20044;-86
2023/01/04 01:06:35;;;;;;;9.07;2.40;;;8.10;99.90;;;;;;4923735;29;20050;-86
2023/01/04 01:09:01;;;;;;;4.78;2.28;;;8.10;99.90;;;;;;4927141;29;20047;-86
2023/01/04 01:11:27;;;;;;;8.48;2.00;;;8.10;99.90;;;;;;4921530;29;20075;-86
2023/01/04 01:13:53;;;;;;;7.22;1.80;;;8.50;99.90;;;;;;4925070;29;20032;-86
2023/01/04 01:16:24;;;;;;;12.18;2.85;;;8.10;99.90;;;;;;4923923;29;20039;-86
2023/01/04 01:18:50;;;;;;;6.40;1.88;;;8.10;99.90;;;;;;4920807;29;20127;-85
2023/01/04 01:21:22;;;;;;;6.80;2.03;;;8.10;99.90;;;;;;4922231;29;20115;-85
2023/01/04 01:23:48;;;;;;;6.68;1.73;;;8.10;99.90;;;;;;4918327;29;20036;-86
2023/01/04 01:26:20;;;;;;;9.40;1.88;;;8.20;99.90;;;;;;4919730;29;20475;-86
2023/01/04 01:28:46;;;;;;;4.30;1.40;;;8.10;99.90;;;;;;4920094;29;20479;-86
2023/01/04 01:31:23;;;;;;;6.15;2.05;;;8.10;99.90;;;;;;4919431;29;20048;-86
2023/01/04 01:33:50;;;;;;;2.60;1.73;;;8.10;99.90;;;;;;4923636;29;20042;-85
2023/01/04 01:36:18;;;;;;;7.03;1.88;;;8.70;99.90;;;;;;4922993;29;20589;-86
2023/01/04 01:38:44;;;;;;;7.05;1.98;;;8.60;99.90;;;;;;4925714;29;20064;-86
2023/01/04 01:41:18;;;;;;;6.53;2.40;;;8.70;99.90;;;;;;4925124;29;20380;-86
2023/01/04 01:43:56;;;;;;;5.25;2.00;;;8.10;99.90;;;;;;4923077;29;20100;-86
2023/01/04 01:46:33;;;;;;;8.35;1.90;;;8.20;99.90;;;;;;4926361;29;20046;-86
2023/01/04 01:49:13;;;;;;;7.50;1.83;;;8.20;99.90;;;;;;4922777;29;20044;-86
2023/01/04 01:51:40;;;;;;;7.13;1.92;;;8.30;99.90;;;;;;4923755;29;20058;-86
2023/01/04 01:54:20;;;;;;;5.03;2.05;;;8.10;99.90;;;;;;4922742;29;20048;-85
2023/01/04 01:56:49;;;;;;;6.93;2.05;;;7.90;99.90;;;;;;4921658;29;20043;-86
2023/01/04 01:59:15;;;;;;;5.47;1.98;;;8.30;99.90;;;;;;4921550;29;20449;-86
2023/01/04 02:01:41;;;;;;;4.82;1.63;;;8.20;99.90;;;;;;4921617;29;20036;-86
2023/01/04 02:04:07;;;;;;;6.07;2.03;;;8.20;99.90;;;;;;4923147;29;20036;-86
2023/01/04 02:06:38;;;;;;;5.63;1.70;;;7.60;99.90;;;;;;4923415;29;20143;-86
2023/01/04 02:09:03;;;;;;;6.90;1.80;;;8.20;99.90;;;;;;4920156;29;20055;-86
2023/01/04 02:11:32;;;;;;;5.68;1.50;;;8.20;99.90;;;;;;4920548;29;20411;-86
2023/01/04 02:16:52;;;;;;;5.55;1.35;;;8.20;99.90;;;;;;4925263;29;20055;-86
2023/01/04 02:19:21;;;;;;;6.03;1.90;;;8.20;99.90;;;;;;4924951;29;20406;-86
2023/01/04 02:22:19;;;;;;;5.10;1.40;;;8.20;99.90;;;;;;4921410;29;20044;-86
2023/01/04 02:25:23;;;;;;;2.45;1.00;;;8.30;99.90;;;;;;4926132;29;20044;-86
2023/01/04 02:27:56;;;;;;;2.58;1.20;;;8.30;99.90;;;;;;4902942;29;20048;-86
2023/01/04 02:30:41;;;;;;;2.65;1.08;;;8.40;99.90;;;;;;4922247;29;20062;-85
2023/01/04 02:33:18;;;;;;;2.05;0.77;;;8.50;99.90;;;;;;4923730;29;20039;-86
2023/01/04 02:35:56;;;;;;;2.35;0.75;;;8.40;99.90;;;;;;4921531;29;20048;-85
2023/01/04 02:38:33;;;;;;;3.15;0.98;;;8.50;99.90;;;;;;4925908;29;20071;-86
2023/01/04 02:41:12;;;;;;;3.45;1.25;;;9.70;99.90;;;;;;4925788;29;20042;-86
2023/01/04 02:46:34;;;;;;;2.17;0.80;;;8.50;99.90;;;;;;4922533;29;20063;-86
2023/01/04 02:51:46;;;;;;;2.80;1.10;;;8.50;99.90;;;;;;4924193;29;20749;-86
2023/01/04 02:54:21;;;;;;;2.83;1.30;;;8.50;99.90;;;;;;4912931;29;21287;-86
2023/01/04 02:57:10;;;;;;;1.77;0.57;;;8.50;99.90;;;;;;4919757;29;20052;-86
2023/01/04 03:00:04;;;;;;;2.65;1.25;;;8.60;99.90;;;;;;4926421;29;20078;-86
2023/01/04 03:08:43;;;;;;;1.08;0.80;;;8.70;99.90;;;;;;4940500;28;20230;-86
2023/01/04 03:14:01;;;;;;;1.52;0.90;;;8.80;99.90;;;;;;4924389;29;20040;-86
2023/01/04 03:16:29;;;;;;;2.00;1.00;;;8.80;99.90;;;;;;4921856;29;20067;-86
2023/01/04 03:19:02;;;;;;;2.65;0.80;;;8.80;99.90;;;;;;4921077;29;20048;-86
2023/01/04 03:21:31;;;;;;;2.10;0.77;;;9.30;99.90;;;;;;4912283;29;20044;-85
2023/01/04 03:35:45;;;;;;;1.35;1.02;;;9.00;99.90;;;;;;4921832;29;20051;-86
2023/01/04 03:50:40;;;;;;;1.70;1.50;;;9.40;99.90;;;;;;4927330;29;20503;-86
2023/01/04 03:53:08;;;;;;;6.63;1.40;;;9.40;99.90;;;;;;4908524;29;20074;-85
2023/01/04 03:55:36;;;;;;;3.78;1.60;;;9.40;99.90;;;;;;4924228;29;20035;-86
2023/01/04 03:58:01;;;;;;;3.03;1.17;;;9.50;99.90;;;;;;4909797;29;20039;-86
2023/01/04 04:00:28;;;;;;;1.40;1.30;;;9.50;99.90;;;;;;4910707;29;20043;-86
2023/01/04 04:03:05;;;;;;;4.10;1.17;;;9.60;99.90;;;;;;4924969;29;20042;-85
2023/01/04 04:08:29;;;;;;;2.45;1.05;;;9.60;99.90;;;;;;4925058;29;20058;-86
2023/01/04 04:11:29;;;;;;;1.15;0.80;;;9.60;99.90;;;;;;4922637;29;20059;-85
2023/01/04 04:13:45;;;;;;;1.58;1.30;;;9.70;99.90;;;;;;4926794;29;20094;-85
2023/01/04 04:16:11;;;;;;;3.08;1.50;;;9.70;99.90;;;;;;4922012;29;20124;-86
2023/01/04 04:18:37;;;;;;;1.75;1.50;;;9.70;99.90;;;;;;4903863;29;20053;-86
2023/01/04 04:21:06;;;;;;;3.38;2.05;;;9.20;99.90;;;;;;4895946;29;20043;-86
2023/01/04 04:23:32;;;;;;;1.65;1.55;;;9.80;99.90;;;;;;4893238;29;20040;-85
2023/01/04 04:26:00;;;;;;;2.10;1.92;;;9.80;99.90;;;;;;4923084;29;21869;-85
2023/01/04 04:28:26;;;;;;;2.72;2.50;;;9.90;99.90;;;;;;4924690;29;20252;-85
2023/01/04 04:30:52;;;;;;;2.33;1.85;;;9.90;99.90;;;;;;4922480;29;20142;-85
2023/01/04 04:33:17;;;;;;;2.60;2.40;;;9.90;99.90;;;;;;4919195;29;20126;-85
2023/01/04 04:35:43;;;;;;;2.10;1.90;;;9.90;99.90;;;;;;4910411;29;20482;-86
2023/01/04 04:38:09;;;;;;;3.53;2.00;;;10.00;99.90;;;;;;4909252;29;20130;-86
2023/01/04 04:43:21;;;;;;;2.90;2.60;;;10.30;99.90;;;;;;4925786;29;20047;-85
2023/01/04 04:45:47;;;;;;;2.88;2.30;;;10.00;99.90;;;;;;4904720;29;20398;-86
2023/01/04 04:48:12;;;;;;;2.78;2.50;;;10.70;99.90;;;;;;4908871;29;20052;-85
2023/01/04 04:50:39;;;;;;;2.78;2.58;;;10.10;99.90;;;;;;4917272;28;20044;-86
2023/01/04 04:53:09;;;;;;;3.97;2.60;;;10.20;99.90;;;;;;4923928;29;20078;-86
2023/01/04 04:55:34;;;;;;;4.68;2.38;;;10.10;99.90;;;;;;4922428;29;20088;-85
2023/01/04 04:58:00;;;;;;;2.97;2.75;;;10.60;99.90;;;;;;4924089;29;20067;-85
2023/01/04 05:00:26;;;;;;;3.05;2.85;;;10.50;99.90;;;;;;4918723;29;20043;-85
2023/01/04 05:02:52;;;;;;;3.38;3.08;;;10.20;99.90;;;;;;4899171;29;20499;-86
2023/01/04 05:05:19;;;;;;;5.75;3.30;;;10.30;99.90;;;;;;4908546;29;20049;-85
2023/01/04 05:25:58;;;;;;;4.38;4.07;;;10.40;99.90;;;;;;4921607;29;20119;-84
2023/01/04 05:28:25;;;;;;;5.18;4.55;;;10.40;99.90;;;;;;4907297;29;20087;-85
2023/01/04 05:30:52;;;;;;;3.70;3.08;;;10.70;99.90;;;;;;4917046;29;20046;-85
2023/01/04 05:33:28;;;;;;;4.25;3.70;;;10.60;99.90;;;;;;4918073;29;20040;-85
2023/01/04 05:35:55;;;;;;;6.47;3.80;;;10.50;99.90;;;;;;4909035;29;20048;-84
2023/01/04 05:38:22;;;;;;;5.90;4.53;;;10.50;99.90;;;;;;4912183;29;20569;-85
2023/01/04 05:40:48;;;;;;;4.20;3.90;;;10.50;99.90;;;;;;4911173;29;20040;-85
2023/01/04 05:43:15;;;;;;;5.07;4.63;;;10.60;99.90;;;;;;4906947;29;20125;-86
2023/01/04 05:45:48;;;;;;;6.75;4.40;;;10.50;99.90;;;;;;4922534;29;20044;-85
2023/01/04 05:48:15;;;;;;;4.78;4.15;;;10.50;99.90;;;;;;4906186;29;20047;-86
2023/01/04 05:50:40;;;;;;;3.97;3.22;;;10.60;99.90;;;;;;4910239;29;20094;-87
2023/01/04 05:53:06;;;;;;;4.60;3.83;;;10.60;99.90;;;;;;4907345;29;20067;-86
2023/01/04 05:55:32;;;;;;;4.88;3.45;;;10.60;99.90;;;;;;4908337;29;20043;-87
2023/01/04 05:57:58;;;;;;;5.45;4.40;;;10.60;99.90;;;;;;4906235;29;20051;-86
2023/01/04 06:00:24;;;;;;;7.60;4.80;;;10.60;99.90;;;;;;4902807;29;20042;-86
2023/01/04 06:02:54;;;;;;;6.30;4.22;;;10.70;99.90;;;;;;4911808;29;20487;-86
2023/01/04 06:05:25;;;;;;;4.70;4.30;;;10.70;99.90;;;;;;4908069;29;20043;-87
2023/01/04 06:07:51;;;;;;;5.25;4.35;;;10.60;99.90;;;;;;4907836;29;20846;-87
2023/01/04 06:10:18;;;;;;;6.70;4.03;;;10.60;99.90;;;;;;4910495;29;20047;-87
2023/01/04 06:12:45;;;;;;;4.90;3.78;;;10.60;99.90;;;;;;4908370;29;20123;-87
2023/01/04 06:15:31;;;;;;;4.05;3.67;;;10.80;99.90;;;;;;4922359;29;20055;-86
2023/01/04 06:17:59;;;;;;;5.70;3.35;;;10.70;99.90;;;;;;4920971;29;20115;-84
2023/01/04 06:20:24;;;;;;;5.40;3.50;;;10.70;99.90;;;;;;4903794;29;20487;-85
2023/01/04 06:22:50;;;;;;;4.45;2.60;;;10.70;99.90;;;;;;4919744;29;20036;-85
2023/01/04 06:25:16;;;;;;;5.18;3.33;;;10.70;99.90;;;;;;4907549;29;20081;-85
2023/01/04 06:27:42;;;;;;;3.30;3.00;;;11.20;99.90;;;;;;4921585;29;20039;-85
2023/01/04 06:30:09;;;;;;;3.80;3.00;;;10.80;99.90;;;;;;4921319;29;20087;-85
2023/01/04 06:32:35;;;;;;;5.22;2.72;;;10.80;99.90;;;;;;4900624;29;20500;-85
2023/01/04 06:35:00;;;;;;;6.05;2.88;;;10.80;99.90;;;;;;4921482;29;20040;-84
2023/01/04 06:37:26;;;;;;;3.28;2.60;;;10.80;99.90;;;;;;4908960;29;20071;-85
2023/01/04 06:39:52;;;;;;;5.80;2.67;;;10.80;99.90;;;;;;4923412;29;20051;-86
2023/01/04 06:45:03;;;;;;;2.45;2.15;;;10.90;99.90;;;;;;4923641;29;20847;-87
2023/01/04 06:47:32;;;;;;;2.38;2.10;;;10.80;99.90;;;;;;4907825;29;20036;-87
2023/01/04 06:50:29;;;;;;;2.03;1.80;;;10.90;99.90;;;;;;4908890;29;20044;-89
2023/01/04 07:00:28;;;;;;;1.98;1.40;;;10.90;99.90;;;;;;4921303;29;20322;-89
2023/01/04 07:03:35;;;;;;;2.35;1.60;;;10.90;99.90;;;;;;4919281;29;20430;-87
2023/01/04 07:06:17;;;;;;;2.65;1.55;;;11.10;99.90;;;;;;4923787;29;20048;-87
2023/01/04 07:08:43;;;;;;;2.47;1.40;;;10.90;99.90;;;;;;4911857;29;20154;-86
2023/01/04 07:11:45;;;;;;;2.03;1.10;;;10.90;99.90;;;;;;4903812;29;20432;-87
2023/01/04 07:14:44;;;;;;;3.85;1.30;;;10.90;99.90;;;;;;4918943;29;20060;-87
2023/01/04 07:17:48;;;;;;;2.08;1.08;;;10.90;99.90;;;;;;4920893;29;20047;-87
2023/01/04 07:31:45;;;;;;;1.33;1.20;;;11.20;99.90;;;;;;4911706;29;20031;-89
2023/01/04 07:34:11;;;;;;;;;;;11.00;99.90;;;;;;4896231;29;20054;-87
2023/01/04 07:36:46;;;;;;;1.88;0.93;;;11.00;99.90;;;;;;4895519;29;19986;-86
2023/01/04 07:39:28;;;;;;;1.20;1.10;;;11.00;99.90;;;;;;4911985;29;20060;-86
2023/01/04 07:42:18;;;;;;;1.05;0.70;;;11.20;99.90;;;;;;4903817;29;20104;-86
2023/01/04 07:44:58;;;;;;;2.28;0.93;;;11.10;99.90;;;;;;4920034;29;20072;-88
2023/01/04 07:47:24;;;;;;;2.45;0.93;;;11.10;99.90;;;;;;4912535;29;20047;-86
2023/01/04 07:50:20;;;;;;;1.10;0.75;;;11.00;99.90;;;;;;4927825;29;20091;-87
2023/01/04 07:52:46;;;;;;;1.67;0.80;;;11.10;99.90;;;;;;4926354;29;20126;-86
2023/01/04 07:55:12;;;;;;;2.15;1.42;;;11.10;99.90;;;;;;4925806;29;20127;-85
2023/01/04 07:57:38;;;;;;;2.67;1.08;;;11.00;99.90;;;;;;4919563;29;20091;-86
2023/01/04 08:00:04;;;;;;;2.55;1.40;;;11.00;99.90;;;;;;4927517;29;20501;-84
2023/01/04 08:02:30;;;;;;;3.10;1.30;;;11.10;99.90;;;;;;4909889;29;20094;-86
2023/01/04 08:04:55;;;;;;;1.85;1.60;;;11.00;99.90;;;;;;4927349;29;20449;-85
2023/01/04 08:07:21;;;;;;;3.03;1.50;;;11.00;99.90;;;;;;4923411;29;20044;-87
2023/01/04 08:09:47;;;;;;;2.03;1.83;;;11.20;99.90;;;;;;4921243;29;20690;-87
2023/01/04 08:12:12;;;;;;;2.72;1.67;;;11.70;99.90;;;;;;4936405;28;20044;-88
2023/01/04 08:14:38;;;;;;;3.17;1.90;;;11.10;99.90;;;;;;4923397;29;20141;-87
2023/01/04 08:17:03;;;;;;;1.92;1.70;;;11.30;99.90;;;;;;4923408;29;20096;-86
2023/01/04 08:19:29;;;;;;;3.10;1.83;;;11.10;99.90;;;;;;4898018;29;20058;-85
2023/01/04 08:21:54;;;;;;;2.20;1.60;;;11.20;99.90;;;;;;4919958;29;20052;-85
2023/01/04 08:24:20;;;;;;;2.63;1.83;;;11.20;99.90;;;;;;4916045;29;20050;-87
2023/01/04 08:26:46;;;;;;;3.03;2.17;;;11.10;99.90;;;;;;4923606;29;20071;-83
2023/01/04 08:29:13;;;;;;;3.28;2.28;;;11.20;99.90;;;;;;4924330;29;20104;-84
2023/01/04 08:31:39;;;;;;;3.38;2.15;;;11.10;99.90;;;;;;4910866;29;20043;-85
2023/01/04 08:34:08;;;;;;;1.98;1.88;;;11.20;99.90;;;;;;4906997;29;20471;-85
2023/01/04 08:36:43;;;;;;;3.05;1.90;;;11.20;99.90;;;;;;4920095;29;20154;-85
2023/01/04 08:39:09;;;;;;;4.47;1.70;;;11.20;99.90;;;;;;4931623;28;20059;-84
2023/01/04 08:41:49;;;;;;;3.10;1.70;;;11.20;99.90;;;;;;4916071;29;20483;-84
2023/01/04 08:44:20;;;;;;;4.03;1.90;;;11.20;99.90;;;;;;4900211;29;20044;-85
2023/01/04 08:46:46;;;;;;;3.03;1.67;;;11.30;99.90;;;;;;4928263;28;20032;-86
2023/01/04 08:49:12;;;;;;;1.83;1.30;;;11.20;99.90;;;;;;4894872;29;20040;-85
2023/01/04 08:51:38;;;;;;;5.20;2.85;;;11.30;99.90;;;;;;4912862;29;20052;-85
2023/01/04 08:54:03;;;;;;;2.30;1.10;;;11.20;99.90;;;;;;4896352;29;20068;-82
2023/01/04 08:56:29;;;;;;;1.15;0.90;;;11.20;99.90;;;;;;4911304;29;20114;-85
2023/01/04 08:58:55;;;;;;;5.00;1.90;;;11.20;99.90;;;;;;4901546;29;20110;-83
2023/01/04 09:01:20;;;;;;;1.73;0.77;;;11.30;99.90;;;;;;4901162;29;20047;-85
2023/01/04 09:03:46;;;;;;;1.63;0.73;;;11.30;99.90;;;;;;4917027;29;20044;-85
2023/01/04 09:06:14;;;;;;;1.02;0.70;;;11.30;99.90;;;;;;4903827;29;20048;-85
2023/01/04 09:08:40;;;;;;;2.35;0.70;;;11.30;99.90;;;;;;4910285;29;20074;-84
2023/01/04 09:11:09;;;;;;;1.30;0.60;;;11.30;99.90;;;;;;4895836;29;20061;-85
2023/01/04 09:13:35;;;;;;;1.95;0.50;;;11.30;99.90;;;;;;4914121;29;20048;-84
2023/01/04 09:16:02;;;;;;;3.70;0.80;;;11.20;99.90;;;;;;4900573;29;20058;-84
2023/01/04 09:19:15;;;;;;;1.40;0.70;;;11.20;99.90;;;;;;4903587;29;20079;-85
2023/01/04 09:22:14;;;;;;;2.15;0.50;;;11.30;99.90;;;;;;4906867;29;20062;-84
2023/01/04 09:24:57;;;;;;;0.98;0.30;;;11.30;99.90;;;;;;4901944;29;20047;-85
2023/01/04 09:27:23;;;;;;;0.95;0.30;;;11.30;99.90;;;;;;4901479;29;20105;-84
2023/01/04 09:29:49;;;;;;;1.75;0.30;;;11.20;99.90;;;;;;4907611;29;20040;-84
2023/01/04 09:32:14;;;;;;;0.28;0.20;;;11.30;99.90;;;;;;4900856;29;20090;-83
2023/01/04 09:39:17;;;;;;;1.63;0.30;;;11.30;99.90;;;;;;4921918;29;20196;-86
2023/01/04 09:42:40;;;;;;;1.17;0.20;;;11.30;99.90;;;;;;4919841;29;20098;-89
2023/01/04 09:45:31;;;;;;;1.17;0.20;;;11.30;99.90;;;;;;4896322;29;20083;-85
2023/01/04 09:48:17;;;;;;;0.63;0.30;;;11.30;99.90;;;;;;4899961;29;20047;-85
2023/01/04 09:54:30;;;;;;;0.85;0.30;;;11.20;99.90;;;;;;4913174;29;20060;-85
2023/01/04 09:56:57;;;;;;;1.23;0.43;;;11.30;99.90;;;;;;4903756;29;20056;-85
2023/01/04 10:11:24;;;;;;;5.00;0.73;;;11.40;99.90;;;;;;4903222;29;20080;-85
2023/01/04 10:14:11;;;;;;;5.65;1.00;;;11.50;99.90;;;;;;4891084;29;20541;-87
2023/01/04 10:17:03;;;;;;;7.53;1.63;;;11.60;99.90;;;;;;4915049;29;20431;-86
2023/01/04 10:19:37;;;;;;;11.30;1.42;;;11.50;99.90;;;;;;4916591;29;20047;-88
2023/01/04 10:25:59;;;;;;;9.05;1.70;;;11.60;99.90;;;;;;4918108;29;21003;-87
2023/01/04 10:28:44;;;;;;;11.00;2.42;;;11.70;99.90;;;;;;4922090;29;20040;-88
2023/01/04 10:31:23;;;;;;;14.90;2.30;;;12.30;99.90;;;;;;4924414;29;20040;-89
2023/01/04 10:34:10;;;;;;;13.20;2.90;;;11.70;99.90;;;;;;4921107;29;20044;-90
2023/01/04 10:36:36;;;;;;;15.45;3.10;;;11.90;99.90;;;;;;4915382;29;20048;-87
2023/01/04 10:39:12;;;;;;;15.50;2.35;;;11.80;99.90;;;;;;4917210;29;20051;-85
2023/01/04 10:41:47;;;;;;;13.05;2.20;;;11.80;99.90;;;;;;4921120;29;20035;-91
2023/01/04 10:44:16;;;;;;;13.00;2.20;;;12.00;99.90;;;;;;4919365;29;20039;-85
2023/01/04 10:47:04;;;;;;;18.50;3.05;;;11.80;99.90;;;;;;4917224;29;20051;-89
2023/01/04 10:49:52;;;;;;;16.40;3.60;;;11.90;99.90;;;;;;4907881;29;20048;-90
2023/01/04 10:52:46;;;;;;;16.40;3.30;;;11.90;99.90;;;;;;4918299;29;20067;-87
2023/01/04 10:55:35;;;;;;;16.85;2.40;;;11.90;99.90;;;;;;4917997;29;20035;-88
2023/01/04 10:58:09;;;;;;;21.10;3.10;;;11.90;99.90;;;;;;4936005;28;20040;-87
2023/01/04 11:00:44;;;;;;;17.50;3.15;;;11.90;99.90;;;;;;4937436;28;20151;-86
2023/01/04 11:03:24;;;;;;;19.70;4.50;;;11.90;99.90;;;;;;4916115;29;20031;-86
2023/01/04 11:06:10;;;;;;;20.95;4.25;;;11.90;99.90;;;;;;4918618;29;20304;-88
2023/01/04 11:08:55;;;;;;;18.83;3.35;;;11.90;99.90;;;;;;4924357;29;20039;-89
2023/01/04 11:11:35;;;;;;;20.75;3.50;;;11.90;99.90;;;;;;4922910;28;20060;-88
2023/01/04 11:14:02;;;;;;;29.45;5.70;;;11.90;99.90;;;;;;4924632;29;20078;-89
2023/01/04 11:16:29;;;;;;;18.85;3.60;;;12.10;99.90;;;;;;4921746;29;20074;-88
2023/01/04 11:18:55;;;;;;;18.80;3.80;;;11.90;99.90;;;;;;4924331;29;20048;-87
2023/01/04 11:21:42;;;;;;;28.77;5.03;;;11.90;99.90;;;;;;4905912;29;20036;-88
2023/01/04 11:24:16;;;;;;;19.83;3.45;;;11.90;99.90;;;;;;4923445;29;20058;-86
2023/01/04 11:26:45;;;;;;;22.30;3.65;;;12.20;99.90;;;;;;4920964;29;20035;-88
2023/01/04 11:29:51;;;;;;;22.77;4.60;;;11.90;99.90;;;;;;4922761;29;20040;-86
2023/01/04 11:32:53;;;;;;;20.15;4.03;;;11.90;99.90;;;;;;4919323;29;20048;-87
2023/01/04 11:35:43;;;;;;;27.45;4.60;;;12.00;99.90;;;;;;4921115;29;20047;-89
2023/01/04 11:38:20;;;;;;;16.80;3.13;;;12.00;99.90;;;;;;4908541;29;20296;-85
2023/01/04 11:40:59;;;;;;;22.33;4.38;;;12.00;99.90;;;;;;4919329;29;20062;-87
2023/01/04 11:43:26;;;;;;;14.93;2.95;;;12.00;99.90;;;;;;4923585;29;20131;-87
2023/01/04 11:45:55;;;;;;;22.10;4.03;;;12.40;99.90;;;;;;4924131;29;20039;-88
2023/01/04 11:48:36;;;;;;;18.85;3.00;;;12.10;99.90;;;;;;4924181;29;20087;-87
2023/01/04 11:51:38;;;;;;;18.92;3.45;;;12.10;99.90;;;;;;4921780;29;20678;-88
2023/01/04 11:54:14;;;;;;;18.35;4.22;;;12.10;99.90;;;;;;4901550;29;20114;-86
2023/01/04 11:56:56;;;;;;;17.42;2.88;;;12.10;99.90;;;;;;4905866;29;20047;-85
2023/01/04 11:59:21;;;;;;;17.42;2.70;;;12.30;99.90;;;;;;4910744;29;20050;-86
2023/01/04 12:01:50;;;;;;;19.30;3.25;;;12.10;99.90;;;;;;4920425;29;20040;-85
2023/01/04 12:04:37;;;;;;;20.25;2.47;;;12.10;99.90;;;;;;4905643;29;20044;-87
2023/01/04 12:49:26;;;;;;;4.40;0.75;;;12.30;99.90;;;;;;4901313;29;20078;-88
2023/01/04 12:52:07;;;;;;;6.82;1.38;;;12.20;99.90;;;;;;4900584;29;20099;-87
2023/01/04 12:55:02;;;;;;;7.45;0.80;;;12.20;99.90;;;;;;4903446;29;20051;-86
2023/01/04 12:57:36;;;;;;;9.07;1.38;;;12.20;99.90;;;;;;4889600;29;20063;-85
2023/01/04 13:00:06;;;;;;;7.18;1.15;;;12.20;99.90;;;;;;4901074;29;20099;-86
2023/01/04 13:02:33;;;;;;;9.23;1.83;;;12.10;99.90;;;;;;4888125;29;20047;-86
2023/01/04 13:05:01;;;;;;;11.18;1.65;;;12.10;99.90;;;;;;4883275;29;20075;-86
2023/01/04 13:07:43;;;;;;;10.98;1.95;;;12.10;99.90;;;;;;4889258;29;20044;-86
2023/01/04 13:10:20;;;;;;;14.10;2.72;;;12.10;99.90;;;;;;4905952;29;20518;-86
2023/01/04 13:12:56;;;;;;;14.05;2.13;;;12.10;99.90;;;;;;4901499;29;20040;-86
2023/01/04 13:16:04;;;;;;;8.05;2.08;;;12.20;99.90;;;;;;4887272;29;20056;-87
2023/01/04 13:18:49;;;;;;;12.57;2.47;;;12.10;99.90;;;;;;4822858;29;20060;-85
2023/01/04 13:21:39;;;;;;;12.40;2.30;;;12.10;99.90;;;;;;4906867;29;21878;-87
2023/01/04 13:54:22;;;;;;;18.83;4.05;;;12.00;99.90;;;;;;4874107;29;20109;-88
2023/01/04 13:57:08;;;;;;;19.23;3.72;;;12.00;99.90;;;;;;4848325;29;20285;-90
2023/01/04 14:07:03;;;;;;;21.67;3.67;;;12.00;99.90;;;;;;4912307;29;20043;-88
2023/01/04 14:10:02;;;;;;;19.63;4.30;;;11.90;99.90;;;;;;4891775;29;20040;-89
2023/01/04 14:13:00;;;;;;;18.20;4.00;;;11.90;99.90;;;;;;4909168;29;20079;-88
2023/01/04 14:15:25;;;;;;;20.63;3.03;;;11.90;99.90;;;;;;4892768;29;20548;-88
2023/01/04 14:17:55;;;;;;;22.65;4.63;;;11.80;99.90;;;;;;4909561;29;20036;-88
2023/01/04 14:20:24;;;;;;;17.15;3.15;;;12.00;99.90;;;;;;4895434;29;20432;-88
2023/01/04 14:22:55;;;;;;;17.15;3.13;;;12.00;99.90;;;;;;4895592;29;20052;-88
2023/01/04 14:25:32;;;;;;;20.52;3.92;;;11.80;99.90;;;;;;4906183;29;20040;-89
2023/01/04 14:28:26;;;;;;;23.58;5.53;;;12.40;99.90;;;;;;4888693;29;20044;-87
2023/01/04 14:31:02;;;;;;;19.13;3.83;;;11.80;99.90;;;;;;4892010;29;20076;-88
2023/01/04 14:33:55;;;;;;;21.63;3.28;;;11.80;99.90;;;;;;4894367;29;20115;-86
2023/01/04 14:36:29;;;;;;;18.23;4.30;;;11.80;99.90;;;;;;4895117;29;20040;-87
2023/01/04 14:39:26;;;;;;;;;;;;;;;;;;;;;
2023/01/04 14:42:39;;;;;;;16.13;2.78;;;12.40;99.90;;;;;;4908532;29;20051;-88
2023/01/04 14:45:14;;;;;;;26.33;4.07;;;11.80;99.90;;;;;;4892997;29;20142;-87
2023/01/04 14:47:58;;;;;;;17.15;3.95;;;11.90;99.90;;;;;;4906438;29;20052;-86
2023/01/04 14:50:24;;;;;;;19.92;3.30;;;11.90;99.90;;;;;;4908487;29;20048;-87
2023/01/04 14:52:50;;;;;;;20.50;3.70;;;12.10;99.90;;;;;;4905918;29;20075;-88
2023/01/04 14:55:17;;;;;;;17.45;3.17;;;12.80;99.90;;;;;;4904662;29;20055;-87
2023/01/04 14:57:45;;;;;;;17.77;3.33;;;12.50;99.90;;;;;;4903210;29;20039;-88
2023/01/04 15:00:15;;;;;;;17.27;2.83;;;11.80;99.90;;;;;;4906633;29;20075;-88
2023/01/04 15:02:41;;;;;;;18.85;4.43;;;11.80;99.90;;;;;;4904560;29;20107;-88
2023/01/04 15:05:07;;;;;;;17.02;3.58;;;12.30;99.90;;;;;;4905897;29;20543;-87
2023/01/04 15:07:38;;;;;;;16.27;3.33;;;11.80;99.90;;;;;;4905364;29;20032;-88
2023/01/04 15:10:16;;;;;;;16.23;2.70;;;11.90;99.90;;;;;;4919469;29;20415;-89
2023/01/04 15:12:42;;;;;;;21.60;3.10;;;11.80;99.90;;;;;;4889496;29;20154;-87
2023/01/04 15:15:08;;;;;;;18.58;3.97;;;11.70;99.90;;;;;;4905050;29;20503;-89
2023/01/04 15:17:34;;;;;;;13.80;2.80;;;11.80;99.90;;;;;;4906315;29;20134;-88
2023/01/04 15:20:07;;;;;;;16.45;2.67;;;11.80;99.90;;;;;;4903489;29;20050;-88
2023/01/04 15:22:32;;;;;;;19.95;4.38;;;11.80;99.90;;;;;;4891531;29;20380;-87
2023/01/04 15:24:58;;;;;;;16.80;3.45;;;12.30;99.90;;;;;;4890430;29;20088;-88
2023/01/04 15:27:24;;;;;;;19.73;3.03;;;11.70;99.90;;;;;;4906543;29;20115;-86
2023/01/04 15:29:49;;;;;;;14.63;2.45;;;11.70;99.90;;;;;;4907512;29;20391;-87
2023/01/04 15:32:15;;;;;;;18.70;3.95;;;11.70;99.90;;;;;;4892998;29;20478;-86
2023/01/04 15:35:03;;;;;;;15.30;3.50;;;11.80;99.90;;;;;;4894890;29;20048;-86
2023/01/04 15:37:28;;;;;;;19.08;3.80;;;11.70;99.90;;;;;;4904990;29;20083;-86
2023/01/04 15:40:11;;;;;;;15.68;3.58;;;11.70;99.90;;;;;;4892830;29;20455;-86
2023/01/04 15:42:57;;;;;;;14.85;2.85;;;12.30;99.90;;;;;;4915306;29;20514;-86
2023/01/04 15:45:38;;;;;;;13.73;3.33;;;11.80;99.90;;;;;;4913567;29;20063;-87
2023/01/04 15:48:20;;;;;;;17.67;4.22;;;11.70;99.90;;;;;;4914507;29;20091;-86
2023/01/04 15:50:46;;;;;;;20.02;3.10;;;11.70;99.90;;;;;;4927293;29;20055;-87
2023/01/04 15:56:38;;;;;;;22.10;4.20;;;11.70;99.90;;;;;;4876575;29;20051;-86
2023/01/04 15:59:04;;;;;;;17.25;3.85;;;11.70;99.90;;;;;;4892644;29;20443;-86
2023/01/04 16:01:30;;;;;;;22.20;3.45;;;11.50;99.90;;;;;;4910984;29;20074;-86
2023/01/04 16:03:55;;;;;;;17.27;2.97;;;12.10;99.90;;;;;;4909675;29;21008;-87
2023/01/04 16:07:18;;;;;;;18.27;2.95;;;11.80;99.90;;;;;;4915056;29;20044;-88
2023/01/04 16:09:44;;;;;;;21.20;2.97;;;11.70;99.90;;;;;;4907750;29;20048;-85
2023/01/04 16:15:02;;;;;;;17.33;3.50;;;12.00;99.90;;;;;;4910516;29;20072;-85
2023/01/04 16:17:44;;;;;;;18.02;3.05;;;12.30;99.90;;;;;;4896512;29;20574;-86
2023/01/04 16:20:50;;;;;;;16.42;3.00;;;11.70;99.90;;;;;;4913661;29;20158;-86
2023/01/04 16:27:09;;;;;;;15.05;3.15;;;11.70;99.90;;;;;;4897616;29;20063;-86
2023/01/04 16:29:35;;;;;;;20.25;4.40;;;11.70;99.90;;;;;;4912325;29;20052;-86
2023/01/04 16:32:02;;;;;;;16.70;3.88;;;11.70;99.90;;;;;;4910598;29;20127;-88
2023/01/04 16:34:49;;;;;;;18.92;3.35;;;12.10;99.90;;;;;;4909050;29;20514;-86
2023/01/04 16:37:15;;;;;;;18.45;2.92;;;11.80;99.90;;;;;;4907683;29;20051;-85
2023/01/04 16:39:43;;;;;;;16.08;2.85;;;11.80;99.90;;;;;;4908755;29;20144;-86